CheckWX is a tool to help pilots better visualize weather data.  It is not intended as a substitute for an official pre-flight weather briefing.

14:42:18 UTC

KFHB METAR
Fernandina Beach Municipal Airport
Fernandina Beach, Florida, USA
Current

27 mins ago

KFHB 221415Z AUTO 32004KT 10SM CLR 22/08 A3020 RMK AO2 T02160083
Observed
Apr-22 @ 14:15 UTC
Wind
  • 320° at 4 KTS
Visibility
10 SM
Flight Rules
VFR
Cloud Levels
  • Clear skies
Temperature
22°C / 72°F
Dewpoint
C / 46°F
Humidity
41%
Altimeter
30.2" Hg
Pressure
1022.72 hPa
Previous

47 mins ago

KFHB 221355Z AUTO 30003KT 10SM CLR 21/08 A3019 RMK AO2 T02070078
Observed
Apr-22 @ 13:55 UTC
Wind
  • 300° at 3 KTS
Visibility
10 SM
Flight Rules
VFR
Cloud Levels
  • Clear skies
Temperature
21°C / 70°F
Dewpoint
C / 46°F
Humidity
43%
Altimeter
30.19" Hg
Pressure
1022.32 hPa
Previous

1 hour ago

KFHB 221335Z AUTO 32005KT 10SM CLR 19/08 A3019 RMK AO2 T01950080
Observed
Apr-22 @ 13:35 UTC
Wind
  • 320° at 5 KTS
Visibility
10 SM
Flight Rules
VFR
Cloud Levels
  • Clear skies
Temperature
20°C / 68°F
Dewpoint
C / 46°F
Humidity
46%
Altimeter
30.19" Hg
Pressure
1022.32 hPa